createdAt,value
2019-04-01T00:01:55.451Z,42.40
2019-04-01T00:04:25.094Z,42.40
2019-04-01T00:06:54.759Z,42.20
2019-04-01T00:09:24.502Z,42.10
2019-04-01T00:11:55.784Z,42.10
2019-04-01T00:14:26.669Z,42.00
2019-04-01T00:16:56.339Z,42.20
2019-04-01T00:19:26.004Z,42.40
2019-04-01T00:21:55.710Z,43.50
2019-04-01T00:24:25.358Z,43.30
2019-04-01T00:26:55.022Z,42.70
2019-04-01T00:29:24.683Z,42.60
2019-04-01T00:31:54.339Z,42.30
2019-04-01T00:34:23.983Z,42.40
2019-04-01T00:36:53.643Z,42.20
2019-04-01T00:39:23.287Z,42.30
2019-04-01T00:42:00.943Z,42.10
2019-04-01T00:44:30.587Z,42.20
2019-04-01T00:47:00.239Z,42.30
2019-04-01T00:49:29.883Z,42.40
2019-04-01T00:51:59.611Z,42.70
2019-04-01T00:54:29.265Z,42.70
2019-04-01T00:56:58.927Z,43.20
2019-04-01T00:59:28.575Z,43.20
2019-04-01T01:01:58.242Z,43.30
2019-04-01T01:04:27.887Z,43.70
2019-04-01T01:06:57.542Z,44.00
2019-04-01T01:09:27.187Z,43.90
2019-04-01T01:11:56.835Z,44.30
2019-04-01T01:14:26.531Z,44.40
2019-04-01T01:16:56.186Z,44.50
2019-04-01T01:19:25.927Z,44.50
2019-04-01T01:21:55.670Z,44.70
2019-04-01T01:24:25.306Z,44.70
2019-04-01T01:26:54.958Z,45.00
2019-04-01T01:29:24.607Z,44.90
2019-04-01T01:31:54.259Z,45.20
2019-04-01T01:34:24.055Z,45.30
2019-04-01T01:36:53.714Z,45.10
2019-04-01T01:39:23.350Z,45.10
2019-04-01T01:41:53.010Z,44.70
2019-04-01T01:44:22.663Z,44.70
2019-04-01T01:46:52.323Z,44.60
2019-04-01T01:49:21.971Z,44.40
2019-04-01T01:51:51.622Z,44.40
2019-04-01T01:54:21.268Z,44.40
2019-04-01T01:56:50.991Z,44.50
2019-04-01T01:59:20.636Z,44.50
2019-04-01T02:01:50.336Z,44.30
2019-04-01T02:04:20.027Z,44.30
2019-04-01T02:06:49.684Z,44.40
2019-04-01T02:09:19.329Z,45.70
2019-04-01T02:11:48.985Z,44.70
2019-04-01T02:14:18.638Z,44.50
2019-04-01T02:16:48.381Z,44.30
2019-04-01T02:19:18.080Z,44.70
2019-04-01T02:21:47.729Z,45.10
2019-04-01T02:24:17.365Z,45.80
2019-04-01T02:26:47.030Z,45.10
2019-04-01T02:29:16.686Z,44.80
2019-04-01T02:31:46.347Z,45.40
2019-04-01T02:34:15.996Z,45.20
2019-04-01T02:36:45.661Z,45.00
2019-04-01T02:39:15.299Z,44.60
2019-04-01T02:41:44.960Z,44.60
2019-04-01T02:44:14.607Z,43.90
2019-04-01T02:46:44.269Z,44.00
2019-04-01T02:49:13.900Z,43.60
2019-04-01T02:51:43.560Z,43.50
2019-04-01T02:54:13.220Z,43.20
2019-04-01T02:56:42.874Z,43.70
2019-04-01T02:59:12.519Z,42.90
2019-04-01T03:01:42.260Z,42.80
2019-04-01T03:04:11.910Z,42.80
2019-04-01T03:06:42.661Z,42.70
2019-04-01T03:09:13.280Z,42.60
2019-04-01T03:11:42.947Z,42.40
2019-04-01T03:14:12.625Z,42.50
2019-04-01T03:16:42.275Z,42.40
2019-04-01T03:19:12.017Z,42.30
2019-04-01T03:21:41.680Z,42.20
2019-04-01T03:24:11.355Z,42.00
2019-04-01T03:26:41.018Z,42.10
2019-04-01T03:29:10.730Z,42.10
2019-04-01T03:31:40.460Z,42.10
2019-04-01T03:34:10.123Z,42.00
2019-04-01T03:36:39.805Z,42.20
2019-04-01T03:39:09.475Z,42.00
2019-04-01T03:41:39.187Z,41.90
2019-04-01T03:44:08.915Z,42.10
2019-04-01T03:46:38.576Z,41.90
2019-04-01T03:49:08.288Z,41.90
2019-04-01T03:51:37.944Z,41.90
2019-04-01T03:54:07.600Z,41.90
2019-04-01T03:56:37.267Z,42.00
2019-04-01T03:59:06.942Z,42.00
2019-04-01T04:01:36.594Z,42.00
2019-04-01T04:04:06.236Z,42.00
2019-04-01T04:06:35.972Z,42.10
2019-04-01T04:09:06.555Z,41.90
2019-04-01T04:11:36.219Z,41.80
2019-04-01T04:14:05.944Z,41.80
2019-04-01T04:16:35.774Z,41.70
2019-04-01T04:19:05.557Z,41.80
2019-04-01T04:21:35.204Z,41.80
2019-04-01T04:24:04.927Z,41.80
2019-04-01T04:26:34.578Z,41.90
2019-04-01T04:29:04.406Z,41.80
2019-04-01T04:31:34.132Z,41.80
2019-04-01T04:34:03.857Z,41.70
2019-04-01T04:36:33.587Z,43.10
2019-04-01T04:39:05.071Z,43.80
2019-04-01T04:41:34.728Z,44.60
2019-04-01T04:44:04.551Z,45.20
2019-04-01T04:46:35.173Z,45.50
2019-04-01T04:49:05.165Z,45.80
2019-04-01T04:51:35.898Z,46.20
2019-04-01T04:54:05.551Z,46.40
2019-04-01T04:56:35.202Z,46.50
2019-04-01T04:59:04.935Z,46.50
2019-04-01T05:01:34.587Z,46.40
2019-04-01T05:04:04.230Z,46.80
2019-04-01T05:06:33.963Z,46.70
2019-04-01T05:09:05.710Z,46.90
2019-04-01T05:11:35.373Z,46.90
2019-04-01T05:14:05.234Z,46.80
2019-04-01T05:16:34.903Z,47.40
2019-04-01T05:19:04.631Z,46.70
2019-04-01T05:21:35.585Z,46.80
2019-04-01T05:24:05.331Z,46.70
2019-04-01T05:26:36.345Z,47.10
2019-04-01T05:29:06.372Z,46.70
2019-04-01T05:31:38.079Z,47.10
2019-04-01T05:34:10.278Z,47.30
2019-04-01T05:36:40.002Z,47.80
2019-04-01T05:39:09.826Z,48.00
2019-04-01T05:41:39.558Z,48.10
2019-04-01T05:44:09.727Z,48.00
2019-04-01T05:46:39.798Z,48.20
2019-04-01T05:49:10.450Z,48.20
2019-04-01T05:51:40.190Z,48.40
2019-04-01T05:54:09.923Z,48.60
2019-04-01T05:56:39.575Z,48.60
2019-04-01T05:59:09.506Z,49.00
2019-04-01T06:01:42.197Z,49.10
2019-04-01T06:04:11.930Z,49.30
2019-04-01T06:06:41.659Z,49.10
2019-04-01T06:09:11.395Z,49.10
2019-04-01T06:11:41.115Z,49.20
2019-04-01T06:14:11.454Z,49.10
2019-04-01T06:16:41.587Z,49.00
2019-04-01T06:19:11.390Z,48.70
2019-04-01T06:21:41.191Z,48.80
2019-04-01T06:24:10.986Z,48.80
2019-04-01T06:26:41.182Z,48.70
2019-04-01T06:29:11.123Z,48.40
2019-04-01T06:31:40.847Z,48.30
2019-04-01T06:34:10.674Z,47.50
2019-04-01T06:36:41.443Z,47.60
2019-04-01T06:39:11.104Z,46.90
2019-04-01T06:41:40.907Z,43.80
2019-04-01T06:44:10.551Z,44.50
2019-04-01T06:46:40.279Z,43.80
2019-04-01T06:49:10.275Z,44.30
2019-04-01T06:51:39.990Z,42.10
2019-04-01T06:54:09.795Z,42.50
2019-04-01T06:56:40.199Z,41.40
2019-04-01T06:59:10.605Z,40.30
2019-04-01T07:01:40.321Z,42.10
2019-04-01T07:04:11.055Z,41.10
2019-04-01T07:06:40.779Z,40.40
2019-04-01T07:09:10.456Z,40.10
2019-04-01T07:11:40.722Z,40.80
2019-04-01T07:14:10.655Z,40.70
2019-04-01T07:16:40.650Z,40.50
2019-04-01T07:19:10.559Z,39.10
2019-04-01T07:21:40.934Z,39.50
2019-04-01T07:24:11.271Z,40.10
2019-04-01T07:26:41.391Z,41.80
2019-04-01T07:29:11.577Z,40.60
2019-04-01T07:31:41.375Z,40.60
2019-04-01T07:37:34.415Z,40.20
2019-04-01T07:40:05.211Z,37.70
2019-04-01T07:42:34.948Z,39.80
2019-04-01T07:45:05.800Z,38.60
2019-04-01T07:47:36.534Z,38.00
2019-04-01T07:50:06.789Z,39.50
2019-04-01T07:52:36.415Z,38.70
2019-04-01T07:55:06.263Z,35.50
2019-04-01T07:57:36.918Z,36.80
2019-04-01T08:00:07.583Z,37.20
2019-04-01T08:02:37.779Z,35.40
2019-04-01T08:05:07.966Z,35.60
2019-04-01T08:07:37.720Z,36.10
2019-04-01T08:10:08.538Z,35.00
2019-04-01T08:12:38.370Z,34.80
2019-04-01T08:15:08.556Z,36.60
2019-04-01T08:17:38.271Z,35.00
2019-04-01T08:20:20.051Z,35.10
2019-04-01T08:22:50.816Z,34.50
2019-04-01T08:25:20.532Z,35.80
2019-04-01T08:27:50.422Z,34.30
2019-04-01T08:33:16.650Z,38.90
2019-04-01T08:35:46.346Z,38.70
2019-04-01T08:38:16.122Z,37.10
2019-04-01T08:40:45.890Z,37.50
2019-04-01T08:43:15.678Z,37.70
2019-04-01T08:45:59.491Z,40.40
2019-04-01T08:48:35.903Z,36.90
2019-04-01T08:51:05.551Z,40.30
2019-04-01T08:53:35.354Z,39.50
2019-04-01T08:56:05.433Z,40.10
2019-04-01T08:58:35.342Z,40.80
2019-04-01T09:01:05.454Z,42.10
2019-04-01T09:03:35.171Z,39.40
2019-04-01T09:06:05.109Z,39.20
2019-04-01T09:08:35.251Z,39.30
2019-04-01T09:11:04.959Z,41.40
2019-04-01T09:13:38.342Z,38.90
2019-04-01T09:16:08.608Z,40.90
2019-04-01T09:18:38.248Z,37.70
2019-04-01T09:21:08.821Z,37.20
2019-04-01T09:23:39.613Z,39.30
2019-04-01T09:26:09.252Z,40.40
2019-04-01T09:28:38.923Z,39.30
2019-04-01T09:31:08.558Z,40.70
2019-04-01T09:33:38.239Z,41.20
2019-04-01T09:36:07.876Z,42.10
2019-04-01T09:38:37.583Z,38.20
2019-04-01T09:41:07.335Z,39.30
2019-04-01T09:43:37.050Z,38.80
2019-04-01T09:46:06.747Z,37.30
2019-04-01T09:48:36.383Z,38.50
2019-04-01T09:51:06.084Z,42.00
2019-04-01T09:53:35.735Z,37.60
2019-04-01T09:56:05.714Z,39.20
2019-04-01T09:58:35.350Z,38.30
2019-04-01T10:01:05.046Z,40.60
2019-04-01T10:03:35.654Z,40.00
2019-04-01T10:06:05.447Z,41.10
2019-04-01T10:08:42.103Z,41.60
2019-04-01T10:11:06.492Z,39.80
2019-04-01T10:13:36.131Z,40.70
2019-04-01T10:16:05.754Z,38.40
2019-04-01T10:18:35.398Z,42.00
2019-04-01T10:21:05.175Z,40.20
2019-04-01T10:23:34.882Z,39.50
2019-04-01T10:26:05.675Z,39.00
2019-04-01T10:28:35.303Z,40.10
2019-04-01T10:31:05.398Z,41.20
2019-04-01T10:33:35.039Z,41.00
2019-04-01T10:36:04.742Z,40.90
2019-04-01T10:38:34.382Z,42.80
2019-04-01T10:41:04.455Z,41.70
2019-04-01T10:43:34.243Z,40.90
2019-04-01T10:46:03.940Z,39.20
2019-04-01T10:48:33.622Z,37.50
2019-04-01T10:51:03.433Z,39.00
2019-04-01T10:53:33.267Z,41.60
2019-04-01T10:56:02.994Z,39.70
2019-04-01T10:58:32.702Z,38.70
2019-04-01T11:01:02.560Z,41.10
2019-04-01T11:03:32.346Z,38.70
2019-04-01T11:06:02.019Z,37.10
2019-04-01T11:08:31.794Z,37.90
2019-04-01T11:11:01.627Z,42.00
2019-04-01T11:13:31.631Z,41.70
2019-04-01T11:16:01.434Z,39.70
2019-04-01T11:18:31.079Z,40.60
2019-04-01T11:21:00.704Z,39.90
2019-04-01T11:23:30.384Z,38.50
2019-04-01T11:26:00.022Z,41.50
2019-04-01T11:28:29.721Z,39.00
2019-04-01T11:30:59.415Z,43.00
2019-04-01T11:33:29.275Z,41.70
2019-04-01T11:35:59.020Z,40.50
2019-04-01T11:38:28.660Z,38.90
2019-04-01T11:40:58.507Z,40.70
2019-04-01T11:43:28.304Z,38.70
2019-04-01T11:45:58.086Z,40.90
2019-04-01T11:48:27.786Z,39.60
2019-04-01T11:50:57.400Z,41.20
2019-04-01T11:53:27.035Z,37.80
2019-04-01T11:55:56.711Z,42.40
2019-04-01T11:58:26.354Z,41.40
2019-04-01T12:00:55.984Z,42.80
2019-04-01T12:03:25.640Z,41.40
2019-04-01T12:05:55.424Z,40.20
2019-04-01T12:08:25.723Z,40.30
2019-04-01T12:10:55.503Z,41.70
2019-04-01T12:13:25.199Z,42.50
2019-04-01T12:15:54.904Z,42.50
2019-04-01T12:18:24.548Z,41.10
2019-04-01T12:20:54.463Z,40.90
2019-04-01T12:23:24.198Z,41.30
2019-04-01T12:25:53.914Z,42.90
2019-04-01T12:28:23.657Z,42.80
2019-04-01T12:30:53.284Z,43.20
2019-04-01T12:33:25.934Z,42.20
2019-04-01T12:35:54.347Z,43.10
2019-04-01T12:38:23.976Z,42.00
2019-04-01T12:40:53.742Z,38.60
2019-04-01T12:43:23.767Z,42.50
2019-04-01T12:45:54.815Z,39.40
2019-04-01T12:48:25.644Z,40.50
2019-04-01T12:50:55.626Z,43.30
2019-04-01T12:53:25.403Z,41.90
2019-04-01T12:55:55.044Z,41.40
2019-04-01T12:58:25.348Z,39.60
2019-04-01T13:00:55.423Z,42.00
2019-04-01T13:03:25.074Z,43.40
2019-04-01T13:05:54.774Z,38.60
2019-04-01T13:08:25.386Z,40.50
2019-04-01T13:10:56.688Z,42.00
2019-04-01T13:13:26.451Z,39.70
2019-04-01T13:15:56.167Z,43.00
2019-04-01T13:18:25.800Z,43.00
2019-04-01T13:20:55.499Z,42.60
2019-04-01T13:23:25.139Z,41.80
2019-04-01T13:25:54.846Z,42.10
2019-04-01T13:28:25.962Z,41.30
2019-04-01T13:30:55.903Z,40.20
2019-04-01T13:33:25.543Z,42.80
2019-04-01T13:35:55.183Z,42.00
2019-04-01T13:38:24.819Z,41.40
2019-04-01T13:40:54.455Z,43.20
2019-04-01T13:43:24.106Z,42.10
2019-04-01T13:45:53.728Z,41.80
2019-04-01T13:48:23.367Z,38.80
2019-04-01T13:50:53.066Z,41.50
2019-04-01T13:53:22.706Z,41.90
2019-04-01T13:55:52.335Z,40.40
2019-04-01T13:58:21.975Z,41.90
2019-04-01T14:00:51.686Z,41.30
2019-04-01T14:03:21.327Z,40.10
2019-04-01T14:05:50.951Z,43.00
2019-04-01T14:08:22.305Z,42.50
2019-04-01T14:10:51.996Z,42.40
2019-04-01T14:13:21.637Z,41.80
2019-04-01T14:15:51.620Z,40.60
2019-04-01T14:18:21.475Z,38.50
2019-04-01T14:20:51.560Z,39.70
2019-04-01T14:23:23.399Z,41.60
2019-04-01T14:25:52.611Z,39.70
2019-04-01T14:28:22.261Z,41.20
2019-04-01T14:30:51.972Z,40.50
2019-04-01T14:33:21.602Z,40.90
2019-04-01T14:35:51.223Z,41.30
2019-04-01T14:38:20.940Z,41.40
2019-04-01T14:40:50.620Z,42.20
2019-04-01T14:43:20.386Z,41.30
2019-04-01T14:45:50.102Z,41.20
2019-04-01T14:48:19.740Z,41.90
2019-04-01T14:50:49.367Z,40.80
2019-04-01T14:53:18.999Z,38.60
2019-04-01T14:55:48.635Z,41.30
2019-04-01T14:58:18.275Z,41.70
2019-04-01T15:00:47.904Z,41.80
2019-04-01T15:03:17.611Z,41.40
2019-04-01T15:05:48.919Z,39.70
2019-04-01T15:08:19.436Z,41.10
2019-04-01T15:10:49.519Z,41.60
2019-04-01T15:13:19.154Z,41.20
2019-04-01T15:15:48.948Z,39.90
2019-04-01T15:18:18.703Z,41.20
2019-04-01T15:20:48.330Z,41.80
2019-04-01T15:23:18.078Z,39.80
2019-04-01T15:25:47.706Z,42.70
2019-04-01T15:28:17.346Z,42.50
2019-04-01T15:30:47.063Z,41.70
2019-04-01T15:33:17.671Z,41.30
2019-04-01T15:35:47.374Z,41.00
2019-04-01T15:38:17.014Z,40.70
2019-04-01T15:40:47.215Z,41.50
2019-04-01T15:43:17.347Z,40.90
2019-04-01T15:45:46.979Z,41.80
2019-04-01T15:48:16.615Z,41.70
2019-04-01T15:50:46.266Z,42.00
2019-04-01T15:53:15.910Z,41.70
2019-04-01T15:55:45.530Z,39.80
2019-04-01T15:58:15.179Z,42.10
2019-04-01T16:00:44.894Z,41.00
2019-04-01T16:03:14.587Z,40.10
2019-04-01T16:05:44.222Z,41.00
2019-04-01T16:08:13.954Z,40.50
2019-04-01T16:10:43.602Z,39.70
2019-04-01T16:13:14.206Z,41.40
2019-04-01T16:15:44.087Z,40.60
2019-04-01T16:18:13.795Z,42.30
2019-04-01T16:20:43.443Z,42.30
2019-04-01T16:23:13.087Z,40.20
2019-04-01T16:25:42.740Z,41.70
2019-04-01T16:28:12.369Z,41.40
2019-04-01T16:30:42.023Z,40.50
2019-04-01T16:33:11.663Z,39.70
2019-04-01T16:35:41.408Z,40.40
2019-04-01T16:38:11.074Z,40.90
2019-04-01T16:40:40.800Z,41.00
2019-04-01T16:43:10.430Z,41.70
2019-04-01T16:45:40.350Z,42.20
2019-04-01T16:48:10.055Z,39.80
2019-04-01T16:50:39.849Z,41.30
2019-04-01T16:53:09.479Z,40.60
2019-04-01T16:55:39.131Z,40.10
2019-04-01T16:58:08.775Z,42.40
2019-04-01T17:00:38.415Z,41.70
2019-04-01T17:03:08.046Z,40.70
2019-04-01T17:05:37.755Z,43.50
2019-04-01T17:08:07.474Z,40.70
2019-04-01T17:10:37.115Z,41.10
2019-04-01T17:13:08.211Z,42.00
2019-04-01T17:15:38.007Z,42.00
2019-04-01T17:18:07.639Z,41.20
2019-04-01T17:20:37.358Z,42.40
2019-04-01T17:23:07.319Z,41.90
2019-04-01T17:25:36.960Z,42.60
2019-04-01T17:28:06.735Z,42.00
2019-04-01T17:30:37.518Z,42.10
2019-04-01T17:33:08.612Z,42.60
2019-04-01T17:35:38.567Z,42.10
2019-04-01T17:38:08.268Z,43.10
2019-04-01T17:40:37.912Z,43.20
2019-04-01T17:43:09.493Z,42.80
2019-04-01T17:45:40.750Z,42.50
2019-04-01T17:48:10.880Z,42.90
2019-04-01T17:50:40.698Z,43.70
2019-04-01T17:53:11.580Z,43.00
2019-04-01T17:55:41.308Z,43.20
2019-04-01T17:58:11.015Z,43.20
2019-04-01T18:00:44.295Z,43.70
2019-04-01T18:03:13.999Z,43.60
2019-04-01T18:05:43.775Z,43.90
2019-04-01T18:08:13.492Z,43.70
2019-04-01T18:10:43.132Z,44.40
2019-04-01T18:13:12.758Z,43.40
2019-04-01T18:15:42.506Z,44.30
2019-04-01T18:18:25.788Z,44.20
2019-04-01T18:20:43.627Z,43.20
2019-04-01T18:23:13.269Z,43.90
2019-04-01T18:25:42.903Z,43.90
2019-04-01T18:28:13.072Z,44.10
2019-04-01T18:30:43.235Z,43.60
2019-04-01T18:33:12.862Z,43.60
2019-04-01T18:35:44.798Z,44.80
2019-04-01T18:38:14.278Z,44.70
2019-04-01T18:40:43.918Z,44.80
2019-04-01T18:43:13.608Z,44.80
2019-04-01T18:45:43.266Z,45.30
2019-04-01T18:48:14.553Z,45.30
2019-04-01T18:50:44.378Z,45.10
2019-04-01T18:53:14.088Z,45.30
2019-04-01T18:55:43.882Z,45.30
2019-04-01T18:58:13.510Z,45.40
2019-04-01T19:00:43.194Z,45.60
2019-04-01T19:03:12.853Z,45.70
2019-04-01T19:05:42.518Z,45.80
2019-04-01T19:08:12.175Z,45.90
2019-04-01T19:10:42.074Z,45.80
2019-04-01T19:13:12.752Z,45.90
2019-04-01T19:15:43.783Z,45.70
2019-04-01T19:18:14.846Z,46.10
2019-04-01T19:20:55.580Z,45.90
2019-04-01T19:23:15.842Z,46.10
2019-04-01T19:25:45.792Z,45.90
2019-04-01T19:28:15.419Z,46.20
2019-04-01T19:30:45.135Z,46.20
2019-04-01T19:33:14.850Z,46.20
2019-04-01T19:35:44.516Z,46.10
2019-04-01T19:38:14.172Z,46.00
2019-04-01T19:40:43.823Z,46.30
2019-04-01T19:43:13.464Z,46.20
2019-04-01T19:45:43.395Z,46.10
2019-04-01T19:48:13.041Z,46.20
2019-04-01T19:50:42.671Z,46.50
2019-04-01T19:53:12.384Z,46.40
2019-04-01T19:55:43.830Z,46.30
2019-04-01T19:58:13.363Z,46.60
2019-04-01T20:00:43.582Z,46.60
2019-04-01T20:03:13.351Z,46.30
2019-04-01T20:05:42.994Z,46.40
2019-04-01T20:08:14.169Z,46.30
2019-04-01T20:10:44.090Z,46.50
2019-04-01T20:13:13.744Z,46.50
2019-04-01T20:15:43.383Z,46.60
2019-04-01T20:18:13.114Z,46.70
2019-04-01T20:20:42.759Z,46.80
2019-04-01T20:23:12.423Z,46.40
2019-04-01T20:25:42.139Z,46.70
2019-04-01T20:28:12.949Z,46.80
2019-04-01T20:30:42.899Z,46.40
2019-04-01T20:33:18.186Z,46.60
2019-04-01T20:35:43.982Z,46.80
2019-04-01T20:38:13.633Z,46.70
2019-04-01T20:40:43.277Z,46.60
2019-04-01T20:43:15.220Z,46.50
2019-04-01T20:45:45.052Z,46.20
2019-04-01T20:48:14.715Z,46.40
2019-04-01T20:50:44.356Z,46.70
2019-04-01T20:53:14.073Z,46.60
2019-04-01T20:55:48.351Z,46.70
2019-04-01T20:58:15.048Z,46.60
2019-04-01T21:00:44.865Z,46.70
2019-04-01T21:03:14.675Z,46.60
2019-04-01T21:05:44.393Z,46.90
2019-04-01T21:08:14.034Z,46.90
2019-04-01T21:10:43.668Z,46.90
2019-04-01T21:13:13.326Z,46.90
2019-04-01T21:15:42.963Z,46.80
2019-04-01T21:18:12.599Z,47.00
2019-04-01T21:20:42.310Z,46.70
2019-04-01T21:23:12.450Z,47.00
2019-04-01T21:25:42.075Z,47.00
2019-04-01T21:28:11.721Z,46.80
2019-04-01T21:30:41.342Z,46.50
2019-04-01T21:33:10.987Z,46.10
2019-04-01T21:35:40.622Z,45.60
2019-04-01T21:38:10.258Z,45.30
2019-04-01T21:40:39.895Z,45.50
2019-04-01T21:43:09.658Z,45.50
2019-04-01T21:45:39.282Z,45.60
2019-04-01T21:48:10.368Z,45.40
2019-04-01T21:50:40.298Z,45.60
2019-04-01T21:53:10.011Z,45.50
2019-04-01T21:55:39.632Z,45.40
2019-04-01T21:58:09.345Z,45.30
2019-04-01T22:00:53.214Z,45.60
2019-04-01T22:03:23.123Z,45.40
2019-04-01T22:05:54.371Z,45.40
2019-04-01T22:08:24.016Z,45.40
2019-04-01T22:10:53.710Z,45.40
2019-04-01T22:13:23.423Z,45.30
2019-04-01T22:15:53.071Z,45.30
2019-04-01T22:18:22.798Z,45.40
2019-04-01T22:20:53.604Z,45.30
2019-04-01T22:23:23.251Z,45.30
2019-04-01T22:25:52.878Z,45.60
2019-04-01T22:28:22.650Z,45.40
2019-04-01T22:30:52.329Z,45.50
2019-04-01T22:33:21.974Z,45.60
2019-04-01T22:35:51.606Z,45.60
2019-04-01T22:38:25.215Z,45.60
2019-04-01T22:40:52.735Z,45.60
2019-04-01T22:43:22.552Z,45.60
2019-04-01T22:45:52.197Z,45.70
2019-04-01T22:48:21.831Z,45.70
2019-04-01T22:50:51.458Z,45.70
2019-04-01T22:53:21.103Z,45.60
2019-04-01T22:55:50.735Z,45.80
2019-04-01T22:58:21.938Z,45.50
2019-04-01T23:00:51.756Z,45.60
2019-04-01T23:03:21.390Z,45.70
2019-04-01T23:05:51.023Z,45.90
2019-04-01T23:08:20.659Z,45.60
2019-04-01T23:10:50.378Z,45.60
2019-04-01T23:13:20.177Z,45.70
2019-04-01T23:15:50.138Z,45.80
2019-04-01T23:18:19.771Z,45.90
2019-04-01T23:20:49.418Z,45.90
2019-04-01T23:23:19.039Z,46.10
2019-04-01T23:25:48.683Z,46.50
2019-04-01T23:28:18.311Z,46.10
2019-04-01T23:30:48.156Z,46.10
2019-04-01T23:33:18.730Z,46.10
2019-04-01T23:35:48.389Z,46.20
2019-04-01T23:38:18.018Z,46.10
2019-04-01T23:40:47.667Z,46.10
2019-04-01T23:43:17.299Z,45.90
2019-04-01T23:45:46.948Z,45.90
2019-04-01T23:48:16.574Z,46.10
2019-04-01T23:50:46.210Z,46.30
2019-04-01T23:53:15.850Z,46.20
2019-04-01T23:55:45.526Z,46.90
2019-04-01T23:58:15.198Z,46.20
